Wetterstation Vordersexau
Wetterdaten: Woche 10.01.11 - 16.01.11 (KW2)
Datum Zeit Temp. A. Feuchte A. Luftdruck Regen Wind Richtung Taupunkt Windchill Windben
10.01.2011 00:00 4,1 C 88 % 1018,3 hPa 0,4 l/m 0,0 km/h N-NO 2,3 C 4,1 C 0,0 km/h
10.01.2011 01:00 4,0 C 87 % 1018,4 hPa 0,0 l/m 0,0 km/h SO 2,0 C 4,0 C 0,0 km/h
10.01.2011 02:00 3,9 C 87 % 1019,0 hPa 0,0 l/m 0,0 km/h N-NO 1,9 C 3,9 C 0,0 km/h
10.01.2011 03:00 3,8 C 87 % 1019,3 hPa 0,0 l/m 0,0 km/h N-NO 1,8 C 3,8 C 0,0 km/h
10.01.2011 04:00 3,6 C 88 % 1019,4 hPa 0,0 l/m 0,0 km/h N 1,8 C 3,6 C 0,0 km/h
10.01.2011 05:00 3,6 C 88 % 1019,5 hPa 0,0 l/m 0,0 km/h NW 1,8 C 3,6 C 0,0 km/h
10.01.2011 06:00 3,3 C 89 % 1019,6 hPa 0,0 l/m 0,0 km/h W-NW 1,7 C 3,3 C 0,0 km/h
10.01.2011 07:00 2,9 C 89 % 1019,8 hPa 0,0 l/m 0,0 km/h NW 1,3 C 2,9 C 0,0 km/h
10.01.2011 08:00 3,1 C 88 % 1020,3 hPa 0,0 l/m 0,0 km/h W 1,3 C 3,1 C 0,0 km/h
10.01.2011 09:00 3,2 C 89 % 1020,2 hPa 0,0 l/m 0,0 km/h W-NW 1,6 C 3,2 C 0,0 km/h
10.01.2011 10:00 3,6 C 89 % 1020,2 hPa 0,0 l/m 0,6 km/h W 2,0 C 3,6 C 0,4 km/h
10.01.2011 11:00 3,8 C 89 % 1020,2 hPa 0,0 l/m 0,0 km/h W 2,2 C 3,8 C 0,0 km/h
10.01.2011 12:00 4,1 C 89 % 1019,5 hPa 0,0 l/m 0,0 km/h W-NW 2,5 C 4,1 C 0,0 km/h
10.01.2011 13:00 4,8 C 88 % 1018,7 hPa 0,0 l/m 0,0 km/h W-NW 3,0 C 4,8 C 0,0 km/h
10.01.2011 14:00 4,9 C 88 % 1018,4 hPa 0,0 l/m 0,0 km/h N 3,1 C 4,9 C 0,0 km/h
10.01.2011 15:00 4,4 C 88 % 1017,8 hPa 0,0 l/m 0,0 km/h NW 2,6 C 4,4 C 0,0 km/h
10.01.2011 16:00 3,8 C 89 % 1017,8 hPa 0,0 l/m 0,0 km/h W-NW 2,2 C 3,8 C 0,0 km/h
10.01.2011 17:00 3,3 C 89 % 1017,2 hPa 0,0 l/m 0,0 km/h NW 1,7 C 3,3 C 0,0 km/h
10.01.2011 18:00 2,9 C 89 % 1016,9 hPa 0,0 l/m 0,0 km/h W 1,3 C 2,9 C 0,0 km/h
10.01.2011 19:00 2,4 C 88 % 1016,7 hPa 0,0 l/m 0,0 km/h W-NW 0,6 C 2,4 C 0,0 km/h
10.01.2011 20:00 2,3 C 88 % 1016,5 hPa 0,0 l/m 0,0 km/h W-NW 0,5 C 2,3 C 0,0 km/h
10.01.2011 21:00 2,2 C 88 % 1016,0 hPa 0,0 l/m 0,0 km/h W-NW 0,4 C 2,2 C 0,0 km/h
10.01.2011 22:00 2,3 C 87 % 1015,6 hPa 0,0 l/m 0,0 km/h W-NW 0,4 C 2,3 C 0,0 km/h
10.01.2011 23:00 2,4 C 87 % 1015,5 hPa 0,0 l/m 0,0 km/h W-NW 0,5 C 2,4 C 0,0 km/h
11.01.2011 00:00 2,4 C 86 % 1014,9 hPa 0,0 l/m 0,0 km/h W-NW 0,3 C 2,4 C 0,0 km/h
11.01.2011 01:00 2,5 C 86 % 1014,4 hPa 0,0 l/m 0,0 km/h N-NW 0,4 C 2,5 C 0,0 km/h
11.01.2011 02:00 2,6 C 86 % 1013,6 hPa 0,0 l/m 0,0 km/h N-NW 0,5 C 2,6 C 0,0 km/h
11.01.2011 03:00 2,7 C 86 % 1013,4 hPa 0,0 l/m 0,0 km/h O-NO 0,6 C 2,7 C 0,0 km/h
11.01.2011 04:00 2,9 C 86 % 1012,7 hPa 0,0 l/m 0,0 km/h SO 0,8 C 2,9 C 0,0 km/h
11.01.2011 05:00 2,8 C 87 % 1011,8 hPa 0,0 l/m 0,0 km/h O-SO 0,9 C 2,8 C 0,0 km/h
11.01.2011 06:00 1,1 C 88 % 1010,6 hPa 0,0 l/m 0,0 km/h SO -0,7 C 1,1 C 0,0 km/h
11.01.2011 07:00 -0,1 C 88 % 1010,1 hPa 0,0 l/m 0,0 km/h O -1,8 C -0,1 C 0,0 km/h
11.01.2011 08:00 -0,6 C 88 % 1009,9 hPa 0,0 l/m 0,0 km/h O-NO -2,3 C -0,6 C 0,0 km/h
11.01.2011 09:00 3,8 C 86 % 1009,3 hPa 0,0 l/m 0,0 km/h SO 1,7 C 3,8 C 0,0 km/h
11.01.2011 10:00 7,3 C 87 % 1008,7 hPa 0,0 l/m 0,0 km/h O-SO 5,3 C 7,3 C 0,0 km/h
11.01.2011 11:00 12,1 C 73 % 1007,9 hPa 0,0 l/m 0,0 km/h W 7,4 C 12,1 C 0,0 km/h
11.01.2011 12:00 8,1 C 77 % 1006,8 hPa 0,0 l/m 1,9 km/h N-NW 4,3 C 8,1 C 1,1 km/h
11.01.2011 13:00 7,0 C 81 % 1006,9 hPa 0,0 l/m 0,0 km/h W-SW 4,0 C 7,0 C 0,0 km/h
11.01.2011 14:00 5,9 C 86 % 1007,2 hPa 0,4 l/m 6,5 km/h S-SW 3,7 C 5,8 C 3,6 km/h
11.01.2011 15:00 5,6 C 88 % 1007,6 hPa 0,4 l/m 0,0 km/h W-SW 3,8 C 5,6 C 0,0 km/h
11.01.2011 16:00 5,8 C 88 % 1008,2 hPa 0,4 l/m 11,0 km/h SW 4,0 C 2,3 C 6,1 km/h
11.01.2011 17:00 5,9 C 88 % 1009,1 hPa 0,0 l/m 1,3 km/h W 4,1 C 5,9 C 0,7 km/h
11.01.2011 18:00 6,4 C 88 % 1010,0 hPa 0,0 l/m 5,8 km/h W-SW 4,6 C 6,4 C 3,2 km/h
11.01.2011 19:00 6,5 C 88 % 1010,9 hPa 0,0 l/m 8,4 km/h W-SW 4,7 C 4,9 C 4,7 km/h
11.01.2011 20:00 6,5 C 88 % 1012,1 hPa 0,0 l/m 12,3 km/h S-SW 4,7 C 2,3 C 6,8 km/h
11.01.2011 21:00 6,5 C 88 % 1012,6 hPa 0,0 l/m 9,7 km/h W-SW 4,7 C 3,9 C 5,4 km/h
11.01.2011 22:00 6,5 C 88 % 1013,4 hPa 0,0 l/m 18,8 km/h SW 4,7 C -0,8 C 10,4 km/h
11.01.2011 23:00 7,0 C 88 % 1014,0 hPa 0,0 l/m 3,9 km/h W-SW 5,2 C 7,0 C 2,2 km/h
12.01.2011 00:00 6,9 C 88 % 1014,4 hPa 0,0 l/m 23,3 km/h SW 5,1 C -1,8 C 13,0 km/h
12.01.2011 01:00 6,9 C 87 % 1014,7 hPa 0,0 l/m 22,0 km/h W-SW 4,9 C -1,4 C 12,2 km/h
12.01.2011 02:00 6,6 C 88 % 1015,9 hPa 0,4 l/m 12,3 km/h SW 4,8 C 2,4 C 6,8 km/h
12.01.2011 03:00 6,4 C 88 % 1017,1 hPa 0,0 l/m 14,3 km/h W 4,6 C 1,1 C 7,9 km/h
12.01.2011 04:00 6,1 C 88 % 1017,8 hPa 0,0 l/m 0,0 km/h N 4,3 C 6,1 C 0,0 km/h
12.01.2011 05:00 5,8 C 89 % 1019,0 hPa 0,0 l/m 0,0 km/h SW 4,1 C 5,8 C 0,0 km/h
12.01.2011 06:00 4,8 C 89 % 1019,7 hPa 0,0 l/m 0,0 km/h SW 3,1 C 4,8 C 0,0 km/h
12.01.2011 07:00 5,4 C 87 % 1020,1 hPa 0,0 l/m 1,9 km/h W 3,4 C 5,4 C 1,1 km/h
12.01.2011 08:00 5,0 C 88 % 1020,3 hPa 0,0 l/m 0,0 km/h W 3,2 C 5,0 C 0,0 km/h
12.01.2011 09:00 5,8 C 86 % 1020,3 hPa 0,0 l/m 12,3 km/h W-SW 3,6 C 1,5 C 6,8 km/h
12.01.2011 10:00 6,5 C 84 % 1020,6 hPa 0,0 l/m 13,0 km/h S-SW 4,0 C 1,9 C 7,2 km/h
12.01.2011 11:00 7,6 C 79 % 1020,5 hPa 0,0 l/m 35,0 km/h S 4,2 C -3,8 C 19,4 km/h
12.01.2011 12:00 6,9 C 79 % 1020,4 hPa 0,0 l/m 24,0 km/h W-SW 3,5 C -2,1 C 13,3 km/h
12.01.2011 13:00 6,5 C 79 % 1019,5 hPa 0,0 l/m 21,4 km/h S-SW 3,1 C -1,7 C 11,9 km/h
12.01.2011 14:00 6,8 C 77 % 1019,1 hPa 0,0 l/m 21,4 km/h SW 3,1 C -1,3 C 11,9 km/h
12.01.2011 15:00 6,3 C 78 % 1019,0 hPa 0,0 l/m 16,8 km/h SW 2,8 C -0,2 C 9,4 km/h
12.01.2011 16:00 6,6 C 78 % 1018,7 hPa 0,0 l/m 14,9 km/h W-SW 3,0 C 1,1 C 8,3 km/h
12.01.2011 17:00 6,7 C 77 % 1018,8 hPa 0,0 l/m 18,8 km/h S-SW 3,0 C -0,5 C 10,4 km/h
12.01.2011 18:00 7,4 C 73 % 1018,4 hPa 0,0 l/m 6,5 km/h SW 2,9 C 7,3 C 3,6 km/h
12.01.2011 19:00 7,7 C 74 % 1018,1 hPa 0,0 l/m 10,4 km/h W-SW 3,4 C 4,8 C 5,8 km/h
12.01.2011 20:00 7,6 C 83 % 1018,0 hPa 0,4 l/m 29,8 km/h W-SW 4,9 C -2,7 C 16,6 km/h
12.01.2011 21:00 7,9 C 84 % 1018,3 hPa 0,0 l/m 18,1 km/h S-SW 5,4 C 1,3 C 10,1 km/h
12.01.2011 22:00 8,1 C 86 % 1018,0 hPa 0,0 l/m 22,0 km/h S-SW 5,9 C 0,2 C 12,2 km/h
12.01.2011 23:00 8,1 C 88 % 1017,9 hPa 0,4 l/m 13,6 km/h S-SW 6,2 C 3,5 C 7,6 km/h
13.01.2011 00:00 8,7 C 87 % 1017,4 hPa 0,0 l/m 30,5 km/h S-SW 6,7 C -1,3 C 16,9 km/h
13.01.2011 01:00 9,2 C 87 % 1017,2 hPa 0,0 l/m 29,2 km/h W 7,2 C -0,3 C 16,2 km/h
13.01.2011 02:00 9,3 C 87 % 1017,1 hPa 0,0 l/m 15,6 km/h S-SW 7,2 C 4,0 C 8,6 km/h
13.01.2011 03:00 9,6 C 87 % 1017,0 hPa 0,0 l/m 24,0 km/h W 7,5 C 1,6 C 13,3 km/h
13.01.2011 04:00 9,8 C 87 % 1017,0 hPa 0,0 l/m 28,5 km/h S-SW 7,7 C 0,7 C 15,8 km/h
13.01.2011 05:00 10,3 C 87 % 1016,4 hPa 0,0 l/m 45,4 km/h W 8,2 C -1,4 C 25,2 km/h
13.01.2011 06:00 10,6 C 85 % 1016,4 hPa 0,0 l/m 20,1 km/h W-SW 8,2 C 4,0 C 11,2 km/h
13.01.2011 07:00 10,3 C 88 % 1016,5 hPa 0,0 l/m 26,6 km/h SW 8,4 C 1,8 C 14,8 km/h
13.01.2011 08:00 10,4 C 88 % 1017,0 hPa 0,0 l/m 42,8 km/h SW 8,5 C -0,9 C 23,8 km/h
13.01.2011 09:00 10,4 C 88 % 1017,4 hPa 0,4 l/m 22,0 km/h W-SW 8,5 C 3,2 C 12,2 km/h
13.01.2011 10:00 11,0 C 87 % 1017,9 hPa 0,0 l/m 43,4 km/h SW 8,9 C -0,1 C 24,1 km/h
13.01.2011 11:00 11,1 C 86 % 1018,1 hPa 0,0 l/m 36,9 km/h S 8,8 C 1,0 C 20,5 km/h
13.01.2011 12:00 11,4 C 86 % 1017,8 hPa 0,0 l/m 22,0 km/h SW 9,1 C 4,5 C 12,2 km/h
13.01.2011 13:00 11,9 C 84 % 1017,0 hPa 0,0 l/m 26,6 km/h W-SW 9,3 C 4,0 C 14,8 km/h
13.01.2011 14:00 11,8 C 85 % 1017,0 hPa 0,0 l/m 31,8 km/h W 9,4 C 2,8 C 17,6 km/h
13.01.2011 15:00 11,6 C 86 % 1017,3 hPa 0,0 l/m 7,8 km/h SW 9,3 C 10,7 C 4,3 km/h
13.01.2011 16:00 11,6 C 86 % 1017,4 hPa 0,0 l/m 24,0 km/h W 9,3 C 4,2 C 13,3 km/h
13.01.2011 17:00 11,5 C 86 % 1017,7 hPa 0,0 l/m 14,9 km/h W-SW 9,2 C 7,0 C 8,3 km/h
13.01.2011 18:00 11,3 C 87 % 1017,8 hPa 0,0 l/m 21,4 km/h W-SW 9,2 C 4,6 C 11,9 km/h
13.01.2011 19:00 11,6 C 87 % 1017,7 hPa 0,0 l/m 42,8 km/h W-SW 9,5 C 0,9 C 23,8 km/h
13.01.2011 20:00 11,7 C 86 % 1017,8 hPa 0,0 l/m 21,4 km/h W-SW 9,4 C 5,1 C 11,9 km/h
13.01.2011 21:00 11,3 C 87 % 1017,8 hPa 0,0 l/m 22,7 km/h S-SW 9,2 C 4,2 C 12,6 km/h
13.01.2011 22:00 11,1 C 88 % 1017,9 hPa 0,4 l/m 3,2 km/h S-SW 9,2 C 11,1 C 1,8 km/h
13.01.2011 23:00 10,8 C 88 % 1018,4 hPa 0,0 l/m 0,0 km/h S-SW 8,9 C 10,8 C 0,0 km/h
14.01.2011 00:00 11,4 C 86 % 1017,9 hPa 0,0 l/m 12,3 km/h S-SW 9,1 C 8,0 C 6,8 km/h
14.01.2011 01:00 11,6 C 82 % 1017,9 hPa 0,0 l/m 11,0 km/h W-SW 8,6 C 8,8 C 6,1 km/h
14.01.2011 02:00 11,6 C 80 % 1018,0 hPa 0,0 l/m 25,3 km/h SW 8,3 C 3,9 C 14,0 km/h
14.01.2011 03:00 11,4 C 82 % 1018,4 hPa 0,0 l/m 25,9 km/h W-SW 8,4 C 3,5 C 14,4 km/h
14.01.2011 04:00 11,2 C 82 % 1018,6 hPa 0,0 l/m 26,6 km/h W-SW 8,2 C 3,1 C 14,8 km/h
14.01.2011 05:00 11,3 C 82 % 1018,5 hPa 0,0 l/m 25,3 km/h W-SW 8,3 C 3,5 C 14,0 km/h
14.01.2011 06:00 11,1 C 83 % 1018,9 hPa 0,0 l/m 14,9 km/h W-SW 8,3 C 6,5 C 8,3 km/h
14.01.2011 07:00 10,9 C 84 % 1018,9 hPa 0,0 l/m 9,7 km/h W-SW 8,3 C 8,8 C 5,4 km/h
14.01.2011 08:00 10,5 C 85 % 1019,4 hPa 0,0 l/m 13,6 km/h W 8,1 C 6,3 C 7,6 km/h
14.01.2011 09:00 10,5 C 85 % 1019,2 hPa 0,0 l/m 2,6 km/h W 8,1 C 10,5 C 1,4 km/h
14.01.2011 10:00 10,8 C 85 % 1019,2 hPa 0,0 l/m 6,5 km/h W-SW 8,4 C 10,8 C 3,6 km/h
14.01.2011 11:00 10,9 C 84 % 1019,1 hPa 0,0 l/m 13,0 km/h W-SW 8,3 C 7,1 C 7,2 km/h
14.01.2011 12:00 11,6 C 82 % 1018,8 hPa 0,0 l/m 7,1 km/h W-SW 8,6 C 11,1 C 4,0 km/h
14.01.2011 13:00 12,2 C 80 % 1018,3 hPa 0,0 l/m 20,7 km/h W-SW 8,9 C 5,9 C 11,5 km/h
14.01.2011 14:00 11,9 C 80 % 1017,7 hPa 0,0 l/m 5,8 km/h W-SW 8,6 C 11,9 C 3,2 km/h
14.01.2011 15:00 11,8 C 79 % 1017,5 hPa 0,0 l/m 14,3 km/h SW 8,3 C 7,6 C 7,9 km/h
14.01.2011 16:00 10,9 C 80 % 1017,4 hPa 0,0 l/m 5,2 km/h SW 7,6 C 10,9 C 2,9 km/h
14.01.2011 17:00 9,5 C 81 % 1017,3 hPa 0,0 l/m 0,0 km/h W-SW 6,4 C 9,5 C 0,0 km/h
14.01.2011 18:00 8,7 C 81 % 1017,2 hPa 0,0 l/m 0,0 km/h NO 5,6 C 8,7 C 0,0 km/h
14.01.2011 19:00 7,8 C 86 % 1016,9 hPa 0,0 l/m 0,0 km/h NO 5,6 C 7,8 C 0,0 km/h
14.01.2011 20:00 7,1 C 88 % 1016,9 hPa 0,0 l/m 0,0 km/h SW 5,2 C 7,1 C 0,0 km/h
14.01.2011 21:00 7,4 C 86 % 1017,4 hPa 0,0 l/m 0,0 km/h W-SW 5,2 C 7,4 C 0,0 km/h
14.01.2011 22:00 8,9 C 82 % 1017,7 hPa 0,0 l/m 1,9 km/h W-SW 6,0 C 8,9 C 1,1 km/h
14.01.2011 23:00 10,3 C 77 % 1017,7 hPa 0,0 l/m 15,6 km/h W 6,4 C 5,3 C 8,6 km/h
15.01.2011 00:00 10,3 C 80 % 1018,2 hPa 0,0 l/m 30,5 km/h W-SW 7,0 C 1,0 C 16,9 km/h
15.01.2011 01:00 9,0 C 87 % 1019,4 hPa 0,0 l/m 25,3 km/h SW 7,0 C 0,4 C 14,0 km/h
15.01.2011 02:00 8,8 C 87 % 1020,4 hPa 0,0 l/m 23,3 km/h N 6,8 C 0,7 C 13,0 km/h
15.01.2011 03:00 8,1 C 88 % 1021,7 hPa 0,7 l/m 0,0 km/h W 6,2 C 8,1 C 0,0 km/h
15.01.2011 04:00 8,3 C 88 % 1022,6 hPa 0,0 l/m 24,0 km/h W-SW 6,4 C -0,2 C 13,3 km/h
15.01.2011 05:00 7,8 C 88 % 1023,3 hPa 0,4 l/m 8,4 km/h S-SW 5,9 C 6,2 C 4,7 km/h
15.01.2011 06:00 7,1 C 88 % 1023,8 hPa 0,0 l/m 0,0 km/h SW 5,2 C 7,1 C 0,0 km/h
15.01.2011 07:00 7,9 C 88 % 1024,8 hPa 0,0 l/m 11,7 km/h W-SW 6,0 C 4,3 C 6,5 km/h
15.01.2011 08:00 8,3 C 87 % 1025,3 hPa 0,0 l/m 3,2 km/h SW 6,3 C 8,3 C 1,8 km/h
15.01.2011 09:00 8,6 C 86 % 1026,1 hPa 0,0 l/m 18,1 km/h S-SW 6,4 C 2,2 C 10,1 km/h
15.01.2011 10:00 10,2 C 84 % 1025,8 hPa 0,0 l/m 12,3 km/h S-SW 7,6 C 6,6 C 6,8 km/h
15.01.2011 11:00 12,5 C 73 % 1025,6 hPa 0,0 l/m 7,8 km/h W-SW 7,8 C 11,6 C 4,3 km/h
15.01.2011 12:00 13,8 C 68 % 1025,2 hPa 0,0 l/m 22,7 km/h S-SW 8,0 C 7,5 C 12,6 km/h
15.01.2011 13:00 12,3 C 72 % 1025,1 hPa 0,0 l/m 19,4 km/h W-SW 7,4 C 6,4 C 10,8 km/h
15.01.2011 14:00 12,5 C 71 % 1024,9 hPa 0,0 l/m 24,0 km/h W-SW 7,4 C 5,5 C 13,3 km/h
15.01.2011 15:00 13,6 C 67 % 1025,3 hPa 0,0 l/m 1,3 km/h S-SW 7,6 C 13,6 C 0,7 km/h
15.01.2011 16:00 12,2 C 66 % 1025,0 hPa 0,0 l/m 21,4 km/h S 6,0 C 5,7 C 11,9 km/h
15.01.2011 17:00 7,8 C 76 % 1025,5 hPa 0,0 l/m 0,0 km/h SO 3,8 C 7,8 C 0,0 km/h
15.01.2011 18:00 5,5 C 85 % 1025,3 hPa 0,0 l/m 0,0 km/h O-NO 3,2 C 5,5 C 0,0 km/h
15.01.2011 19:00 5,0 C 87 % 1025,9 hPa 0,0 l/m 0,0 km/h NO 3,0 C 5,0 C 0,0 km/h
15.01.2011 20:00 4,3 C 88 % 1025,9 hPa 0,0 l/m 0,0 km/h SO 2,5 C 4,3 C 0,0 km/h
15.01.2011 21:00 4,3 C 88 % 1025,7 hPa 0,0 l/m 0,6 km/h O-NO 2,5 C 4,3 C 0,4 km/h
15.01.2011 22:00 3,6 C 88 % 1025,9 hPa 0,0 l/m 0,0 km/h O-SO 1,8 C 3,6 C 0,0 km/h
15.01.2011 23:00 3,5 C 88 % 1025,3 hPa 0,0 l/m 0,0 km/h SO 1,7 C 3,5 C 0,0 km/h
16.01.2011 00:00 2,6 C 88 % 1025,2 hPa 0,0 l/m 0,0 km/h O-SO 0,8 C 2,6 C 0,0 km/h
16.01.2011 01:00 2,2 C 88 % 1025,1 hPa 0,0 l/m 0,0 km/h O 0,4 C 2,2 C 0,0 km/h
16.01.2011 02:00 2,4 C 88 % 1025,0 hPa 0,0 l/m 0,0 km/h SO 0,6 C 2,4 C 0,0 km/h
16.01.2011 03:00 0,6 C 88 % 1025,7 hPa 0,0 l/m 0,0 km/h O-SO -1,2 C 0,6 C 0,0 km/h
16.01.2011 04:00 1,1 C 88 % 1025,8 hPa 0,0 l/m 0,0 km/h O-NO -0,7 C 1,1 C 0,0 km/h
16.01.2011 05:00 0,6 C 88 % 1026,1 hPa 0,0 l/m 0,0 km/h O-NO -1,2 C 0,6 C 0,0 km/h
16.01.2011 06:00 0,5 C 88 % 1026,0 hPa 0,0 l/m 0,0 km/h O-NO -1,3 C 0,5 C 0,0 km/h
16.01.2011 07:00 0,8 C 87 % 1025,5 hPa 0,0 l/m 0,0 km/h N-NW -1,1 C 0,8 C 0,0 km/h
16.01.2011 08:00 -0,1 C 88 % 1026,3 hPa 0,0 l/m 0,0 km/h SO -1,8 C -0,1 C 0,0 km/h
16.01.2011 09:00 4,6 C 86 % 1026,3 hPa 0,0 l/m 1,9 km/h O-NO 2,5 C 4,6 C 1,1 km/h
16.01.2011 10:00 8,3 C 85 % 1026,1 hPa 0,0 l/m 0,0 km/h SO 5,9 C 8,3 C 0,0 km/h
16.01.2011 11:00 11,9 C 74 % 1026,1 hPa 0,0 l/m 0,0 km/h NW 7,4 C 11,9 C 0,0 km/h
16.01.2011 12:00 13,5 C 66 % 1025,4 hPa 0,0 l/m 1,3 km/h W-NW 7,3 C 13,5 C 0,7 km/h
16.01.2011 13:00 13,2 C 66 % 1024,9 hPa 0,0 l/m 0,0 km/h W-SW 7,0 C 13,2 C 0,0 km/h
16.01.2011 14:00 14,3 C 62 % 1024,5 hPa 0,0 l/m 3,9 km/h W 7,1 C 14,3 C 2,2 km/h
16.01.2011 15:00 15,3 C 58 % 1024,3 hPa 0,0 l/m 0,0 km/h W 7,1 C 15,3 C 0,0 km/h
16.01.2011 16:00 14,0 C 63 % 1023,9 hPa 0,0 l/m 0,0 km/h O-NO 7,1 C 14,0 C 0,0 km/h
16.01.2011 17:00 5,4 C 81 % 1024,2 hPa 0,0 l/m 0,0 km/h SO 2,4 C 5,4 C 0,0 km/h
16.01.2011 18:00 3,3 C 87 % 1023,8 hPa 0,0 l/m 0,0 km/h NO 1,3 C 3,3 C 0,0 km/h
16.01.2011 19:00 2,3 C 88 % 1024,4 hPa 0,0 l/m 0,0 km/h O-NO 0,5 C 2,3 C 0,0 km/h
16.01.2011 20:00 1,9 C 88 % 1024,6 hPa 0,0 l/m 0,0 km/h O-SO 0,1 C 1,9 C 0,0 km/h
16.01.2011 21:00 1,6 C 88 % 1024,5 hPa 0,0 l/m 0,0 km/h SO -0,2 C 1,6 C 0,0 km/h
16.01.2011 22:00 0,8 C 88 % 1024,6 hPa 0,0 l/m 0,0 km/h O-NO -1,0 C 0,8 C 0,0 km/h
16.01.2011 23:00 0,4 C 88 % 1024,5 hPa 0,0 l/m 0,0 km/h O-NO -1,3 C 0,4 C 0,0 km/h
Min-Datum _ 11.01.11 16.01.11 11.01.11 - 10.01.11 - 11.01.11 12.01.11 10.01.11
_ Min-Zeit 08:30 15:30 12:30 - 00:30 - 08:30 11:30 00:30
Minimum _ -0,6 C 58 % 1006,8 hPa - 0,0 km/h - -2,3 C -3,8 C 0,0 km/h
Max-Datum _ 16.01.11 10.01.11 16.01.11 15.01.11 13.01.11 - 13.01.11 16.01.11 13.01.11
_ Max-Zeit 15:30 06:30 08:30 03:30 05:30 - 19:30 15:30 05:30
Maximum _ 15,3 C 89 % 1026,3 hPa 0,7 l/m 45,4 km/h
W
- 9,5 C 15,3 C 25,2 km/h
W
Durchschnitt _ 7,1 C 84 % 1018,9 hPa #4,3 l/m 9,3 km/h W-SW 4,6 C 4,4 C 5,1 km/h
www.sexauwetter.de